createdAt,value
2019-05-25T00:00:10.104Z,100417.81
2019-05-25T00:01:11.693Z,100416.80
2019-05-25T00:02:13.093Z,100414.93
2019-05-25T00:03:14.575Z,100414.59
2019-05-25T00:04:15.979Z,100414.11
2019-05-25T00:05:17.373Z,100411.42
2019-05-25T00:06:18.754Z,100417.13
2019-05-25T00:07:20.159Z,100413.09
2019-05-25T00:08:22.555Z,100416.94
2019-05-25T00:09:24.095Z,100415.26
2019-05-25T00:10:25.466Z,100413.09
2019-05-25T00:11:26.865Z,100418.47
2019-05-25T00:12:28.341Z,100415.78
2019-05-25T00:13:29.741Z,100412.77
2019-05-25T00:14:31.124Z,100418.14
2019-05-25T00:15:32.515Z,100409.74
2019-05-25T00:16:33.906Z,100410.76
2019-05-25T00:17:36.501Z,100412.59
2019-05-25T00:18:37.888Z,100412.11
2019-05-25T00:19:39.299Z,100409.91
2019-05-25T00:20:40.677Z,100411.44
2019-05-25T00:21:43.087Z,100406.89
2019-05-25T00:22:44.471Z,100411.12
2019-05-25T00:23:45.872Z,100409.44
2019-05-25T00:24:47.389Z,100407.77
2019-05-25T00:25:48.840Z,100411.80
2019-05-25T00:26:50.365Z,100406.09
2019-05-25T00:27:51.785Z,100408.94
2019-05-25T00:28:53.173Z,100409.47
2019-05-25T00:29:54.942Z,100410.45
2019-05-25T00:30:56.323Z,100409.95
2019-05-25T00:31:57.833Z,100414.16
2019-05-25T00:32:59.205Z,100414.16
2019-05-25T00:34:00.711Z,100405.75
2019-05-25T00:35:03.121Z,100407.95
2019-05-25T00:36:05.916Z,100405.75
2019-05-25T00:37:07.305Z,100407.10
2019-05-25T00:38:08.700Z,100406.77
2019-05-25T00:39:10.093Z,100403.75
2019-05-25T00:40:11.508Z,100403.42
2019-05-25T00:41:12.880Z,100404.44
2019-05-25T00:42:14.289Z,100404.96
2019-05-25T00:43:15.675Z,100408.14
2019-05-25T00:44:17.078Z,100401.09
2019-05-25T00:45:18.724Z,100401.09
2019-05-25T00:46:20.271Z,100398.92
2019-05-25T00:47:21.761Z,100402.10
2019-05-25T00:48:25.929Z,100400.75
2019-05-25T00:49:27.324Z,100396.39
2019-05-25T00:50:28.888Z,100395.38
2019-05-25T00:51:30.297Z,100398.59
2019-05-25T00:52:31.712Z,100397.73
2019-05-25T00:53:33.234Z,100399.08
2019-05-25T00:54:34.652Z,100403.11
2019-05-25T00:55:36.077Z,100394.56
2019-05-25T00:56:37.556Z,100398.26
2019-05-25T00:57:38.960Z,100400.42
2019-05-25T00:58:40.340Z,100393.55
2019-05-25T00:59:41.729Z,100400.42
2019-05-25T01:00:43.181Z,100401.28
2019-05-25T01:01:44.561Z,100393.70
2019-05-25T01:02:45.957Z,100398.59
2019-05-25T01:03:47.337Z,100394.03
2019-05-25T01:04:48.838Z,100395.38
2019-05-25T01:05:50.247Z,100399.94
2019-05-25T01:06:51.648Z,100392.69
2019-05-25T01:07:53.629Z,100395.22
2019-05-25T01:08:55.030Z,100397.58
2019-05-25T01:09:56.423Z,100395.38
2019-05-25T01:10:57.979Z,100394.89
2019-05-25T01:11:59.353Z,100386.30
2019-05-25T01:13:00.881Z,100393.02
2019-05-25T01:14:02.540Z,100390.00
2019-05-25T01:15:05.849Z,100390.86
2019-05-25T01:16:08.394Z,100391.67
2019-05-25T01:17:09.781Z,100387.64
2019-05-25T01:18:11.163Z,100395.05
2019-05-25T01:19:12.949Z,100389.67
2019-05-25T01:20:14.950Z,100388.00
2019-05-25T01:21:16.456Z,100384.98
2019-05-25T01:22:17.937Z,100389.02
2019-05-25T01:23:19.371Z,100388.52
2019-05-25T01:24:20.848Z,100388.68
2019-05-25T01:25:22.467Z,100385.99
2019-05-25T01:26:24.871Z,100388.35
2019-05-25T01:27:26.276Z,100384.32
2019-05-25T01:28:27.655Z,100384.32
2019-05-25T01:29:29.155Z,100382.97
2019-05-25T01:30:30.629Z,100391.04
2019-05-25T01:31:32.212Z,100388.02
2019-05-25T01:32:33.590Z,100393.73
2019-05-25T01:33:34.966Z,100385.33
2019-05-25T01:34:36.357Z,100390.91
2019-05-25T01:35:37.747Z,100389.03
2019-05-25T01:36:39.157Z,100394.94
2019-05-25T01:37:40.657Z,100384.34
2019-05-25T01:38:42.048Z,100387.03
2019-05-25T01:39:43.444Z,100387.23
2019-05-25T01:40:44.932Z,100384.02
2019-05-25T01:41:46.464Z,100384.20
2019-05-25T01:42:47.859Z,100382.01
2019-05-25T01:43:49.263Z,100386.04
2019-05-25T01:44:50.635Z,100379.66
2019-05-25T01:45:52.139Z,100380.66
2019-05-25T01:46:53.557Z,100381.52
2019-05-25T01:47:54.953Z,100383.69
2019-05-25T01:48:56.339Z,100377.30
2019-05-25T01:49:57.833Z,100382.67
2019-05-25T01:50:59.226Z,100380.50
2019-05-25T01:52:00.632Z,100384.70
2019-05-25T01:53:02.041Z,100376.96
2019-05-25T01:54:03.448Z,100379.98
2019-05-25T01:55:05.235Z,100379.98
2019-05-25T01:56:06.659Z,100384.53
2019-05-25T01:57:08.091Z,100387.23
2019-05-25T01:58:09.574Z,100384.02
2019-05-25T01:59:10.973Z,100379.66
2019-05-25T02:00:13.553Z,100376.96
2019-05-25T02:01:15.045Z,100381.33
2019-05-25T02:02:16.658Z,100382.18
2019-05-25T02:03:18.037Z,100377.62
2019-05-25T02:04:19.422Z,100376.80
2019-05-25T02:05:20.807Z,100383.52
2019-05-25T02:06:22.192Z,100381.66
2019-05-25T02:07:23.598Z,100375.45
2019-05-25T02:08:24.994Z,100372.25
2019-05-25T02:09:26.489Z,100383.00
2019-05-25T02:10:28.077Z,100378.15
2019-05-25T02:11:29.507Z,100381.33
2019-05-25T02:12:31.025Z,100378.63
2019-05-25T02:13:32.400Z,100380.50
2019-05-25T02:14:33.809Z,100375.45
2019-05-25T02:15:35.189Z,100380.50
2019-05-25T02:16:36.705Z,100381.52
2019-05-25T02:17:38.112Z,100376.96
2019-05-25T02:18:39.499Z,100380.50
2019-05-25T02:19:40.985Z,100372.93
2019-05-25T02:20:42.578Z,100374.27
2019-05-25T02:21:43.960Z,100373.94
2019-05-25T02:22:45.345Z,100378.47
2019-05-25T02:23:46.764Z,100379.32
2019-05-25T02:24:48.261Z,100380.33
2019-05-25T02:25:49.649Z,100378.66
2019-05-25T02:26:51.109Z,100378.82
2019-05-25T02:27:52.554Z,100377.80
2019-05-25T02:28:53.981Z,100378.33
2019-05-25T02:29:55.434Z,100385.38
2019-05-25T02:30:56.951Z,100385.05
2019-05-25T02:31:58.348Z,100381.51
2019-05-25T02:32:59.809Z,100375.31
2019-05-25T02:34:01.392Z,100377.15
2019-05-25T02:35:04.777Z,100374.98
2019-05-25T02:36:06.165Z,100373.64
2019-05-25T02:37:08.568Z,100376.13
2019-05-25T02:38:09.952Z,100370.62
2019-05-25T02:39:11.353Z,100375.99
2019-05-25T02:40:12.829Z,100372.45
2019-05-25T02:41:14.230Z,100382.87
2019-05-25T02:42:15.612Z,100379.36
2019-05-25T02:43:17.012Z,100376.34
2019-05-25T02:44:18.424Z,100381.72
2019-05-25T02:45:20.009Z,100378.19
2019-05-25T02:46:21.402Z,100377.69
2019-05-25T02:47:22.798Z,100381.72
2019-05-25T02:48:24.181Z,100383.07
2019-05-25T02:49:25.617Z,100378.02
2019-05-25T02:50:26.990Z,100377.83
2019-05-25T02:51:28.495Z,100372.98
2019-05-25T02:52:30.023Z,100375.14
2019-05-25T02:53:31.434Z,100378.16
2019-05-25T02:54:32.853Z,100374.66
2019-05-25T02:55:35.326Z,100376.66
2019-05-25T02:56:36.845Z,100373.11
2019-05-25T02:57:38.576Z,100371.77
2019-05-25T02:58:40.038Z,100373.97
2019-05-25T02:59:41.471Z,100378.33
2019-05-25T03:00:42.945Z,100380.69
2019-05-25T03:01:44.445Z,100380.16
2019-05-25T03:02:46.159Z,100378.66
2019-05-25T03:03:47.725Z,100373.77
2019-05-25T03:04:49.135Z,100374.95
2019-05-25T03:05:51.125Z,100373.28
2019-05-25T03:06:53.036Z,100377.65
2019-05-25T03:07:56.125Z,100369.58
2019-05-25T03:08:58.014Z,100376.30
2019-05-25T03:10:00.040Z,100375.29
2019-05-25T03:11:01.817Z,100380.33
2019-05-25T03:12:03.228Z,100374.44
2019-05-25T03:13:04.701Z,100375.45
2019-05-25T03:14:06.096Z,100374.95
2019-05-25T03:15:07.785Z,100376.30
2019-05-25T03:16:09.177Z,100376.30
2019-05-25T03:17:10.666Z,100370.07
2019-05-25T03:18:12.052Z,100375.97
2019-05-25T03:19:13.447Z,100375.45
2019-05-25T03:20:15.843Z,100372.43
2019-05-25T03:21:17.210Z,100370.27
2019-05-25T03:22:18.609Z,100370.76
2019-05-25T03:23:20.304Z,100372.63
2019-05-25T03:24:21.717Z,100377.15
2019-05-25T03:25:23.213Z,100378.00
2019-05-25T03:26:24.715Z,100364.72
2019-05-25T03:27:26.196Z,100374.12
2019-05-25T03:28:27.687Z,100376.33
2019-05-25T03:29:29.072Z,100374.45
2019-05-25T03:30:35.515Z,100373.11
2019-05-25T03:31:36.871Z,100366.06
2019-05-25T03:32:38.314Z,100370.62
2019-05-25T03:33:40.673Z,100371.96
2019-05-25T03:34:42.128Z,100371.96
2019-05-25T03:35:43.519Z,100370.29
2019-05-25T03:36:44.920Z,100368.94
2019-05-25T03:37:46.288Z,100371.30
2019-05-25T03:38:47.681Z,100373.14
2019-05-25T03:39:49.067Z,100375.00
2019-05-25T03:40:50.722Z,100370.97
2019-05-25T03:41:52.086Z,100374.67
2019-05-25T03:42:53.493Z,100372.48
2019-05-25T03:43:54.877Z,100370.80
2019-05-25T03:44:56.423Z,100369.79
2019-05-25T03:45:57.793Z,100373.49
2019-05-25T03:46:59.192Z,100376.02
2019-05-25T03:48:00.686Z,100375.16
2019-05-25T03:49:02.074Z,100372.48
2019-05-25T03:50:05.473Z,100368.97
2019-05-25T03:51:06.905Z,100370.31
2019-05-25T03:52:08.273Z,100370.31
2019-05-25T03:53:09.683Z,100366.61
2019-05-25T03:54:11.088Z,100370.64
2019-05-25T03:55:12.707Z,100375.50
2019-05-25T03:56:14.108Z,100369.30
2019-05-25T03:57:15.493Z,100366.61
2019-05-25T03:58:16.894Z,100369.63
2019-05-25T03:59:18.276Z,100365.59
2019-05-25T04:00:32.377Z,100362.38
2019-05-25T04:01:33.765Z,100370.29
2019-05-25T04:02:35.170Z,100366.72
2019-05-25T04:03:36.588Z,100359.87
2019-05-25T04:04:37.976Z,100361.55
2019-05-25T04:05:39.541Z,100361.34
2019-05-25T04:06:41.073Z,100361.88
2019-05-25T04:07:42.489Z,100366.23
2019-05-25T04:08:43.896Z,100359.19
2019-05-25T04:09:45.312Z,100360.00
2019-05-25T04:10:46.829Z,100361.68
2019-05-25T04:11:48.370Z,100362.53
2019-05-25T04:12:49.754Z,100360.66
2019-05-25T04:13:51.175Z,100351.78
2019-05-25T04:14:52.549Z,100357.16
2019-05-25T04:15:53.948Z,100353.94
2019-05-25T04:16:55.368Z,100356.63
2019-05-25T04:17:56.802Z,100355.81
2019-05-25T04:18:58.209Z,100358.98
2019-05-25T04:19:59.616Z,100357.48
2019-05-25T04:21:01.027Z,100355.29
2019-05-25T04:22:02.459Z,100350.44
2019-05-25T04:23:03.944Z,100355.81
2019-05-25T04:24:05.341Z,100358.30
2019-05-25T04:25:06.722Z,100353.45
2019-05-25T04:26:21.403Z,100358.83
2019-05-25T04:27:11.629Z,100356.96
2019-05-25T04:28:13.140Z,100354.80
2019-05-25T04:29:14.552Z,100352.60
2019-05-25T04:30:17.473Z,100361.19
2019-05-25T04:31:18.946Z,100360.86
2019-05-25T04:32:20.578Z,100358.66
2019-05-25T04:33:21.962Z,100362.69
2019-05-25T04:34:23.365Z,100359.67
2019-05-25T04:35:24.844Z,100362.03
2019-05-25T04:36:26.272Z,100369.27
2019-05-25T04:37:27.776Z,100359.54
2019-05-25T04:38:29.200Z,100363.73
2019-05-25T04:39:30.709Z,100363.23
2019-05-25T04:40:32.298Z,100358.02
2019-05-25T04:41:33.732Z,100366.94
2019-05-25T04:42:35.132Z,100367.95
2019-05-25T04:43:36.515Z,100361.73
2019-05-25T04:44:38.019Z,100359.56
2019-05-25T04:45:39.405Z,100365.76
2019-05-25T04:46:40.801Z,100363.92
2019-05-25T04:47:42.284Z,100359.04
2019-05-25T04:48:43.708Z,100362.91
2019-05-25T04:49:45.117Z,100365.59
2019-05-25T04:50:46.531Z,100366.09
2019-05-25T04:51:48.041Z,100366.41
2019-05-25T04:52:49.701Z,100364.58
2019-05-25T04:53:51.113Z,100364.06
2019-05-25T04:54:52.558Z,100363.57
2019-05-25T04:55:53.973Z,100364.91
2019-05-25T04:56:55.388Z,100363.90
2019-05-25T04:57:57.128Z,100364.23
2019-05-25T04:58:58.520Z,100363.22
2019-05-25T04:59:59.916Z,100362.20
2019-05-25T05:01:01.401Z,100362.20
2019-05-25T05:02:03.158Z,100357.97
2019-05-25T05:03:05.997Z,100353.13
2019-05-25T05:04:07.412Z,100354.47
2019-05-25T05:05:09.029Z,100345.06
2019-05-25T05:06:10.432Z,100352.44
2019-05-25T05:07:11.845Z,100353.78
2019-05-25T05:08:13.461Z,100352.44
2019-05-25T05:09:14.842Z,100352.77
2019-05-25T05:10:16.237Z,100357.81
2019-05-25T05:11:17.613Z,100359.81
2019-05-25T05:12:19.040Z,100351.95
2019-05-25T05:13:20.667Z,100349.75
2019-05-25T05:14:22.079Z,100344.38
2019-05-25T05:15:23.492Z,100351.09
2019-05-25T05:16:24.909Z,100351.95
2019-05-25T05:17:27.330Z,100354.11
2019-05-25T05:18:28.894Z,100352.93
2019-05-25T05:19:30.390Z,100348.08
2019-05-25T05:20:31.790Z,100356.14
2019-05-25T05:21:33.168Z,100357.16
2019-05-25T05:22:34.673Z,100357.16
2019-05-25T05:23:36.094Z,100351.45
2019-05-25T05:24:37.510Z,100354.47
2019-05-25T05:25:38.925Z,100351.12
2019-05-25T05:26:54.606Z,100348.92
2019-05-25T05:27:43.668Z,100352.46
2019-05-25T05:28:45.259Z,100353.80
2019-05-25T05:29:48.538Z,100351.61
2019-05-25T05:30:49.928Z,100353.15
2019-05-25T05:31:51.304Z,100349.94
2019-05-25T05:32:52.866Z,100353.31
2019-05-25T05:33:54.286Z,100349.94
2019-05-25T05:34:55.690Z,100353.31
2019-05-25T05:35:58.509Z,100346.59
2019-05-25T05:37:01.416Z,100349.80
2019-05-25T05:38:04.226Z,100348.45
2019-05-25T05:39:07.099Z,100352.16
2019-05-25T05:40:08.993Z,100349.14
2019-05-25T05:41:11.672Z,100349.63
2019-05-25T05:42:13.751Z,100351.50
2019-05-25T05:43:15.246Z,100352.52
2019-05-25T05:44:17.804Z,100351.50
2019-05-25T05:45:19.247Z,100351.17
2019-05-25T05:46:21.364Z,100349.30
2019-05-25T05:47:24.470Z,100345.79
2019-05-25T05:48:27.382Z,100346.61
2019-05-25T05:49:29.511Z,100347.80
2019-05-25T05:50:33.202Z,100345.59
2019-05-25T05:51:35.101Z,100345.92
2019-05-25T05:52:37.685Z,100343.23
2019-05-25T05:53:41.409Z,100345.77
2019-05-25T05:54:44.934Z,100345.77
2019-05-25T05:55:46.304Z,100343.90
2019-05-25T05:56:47.915Z,100347.11
2019-05-25T05:57:49.501Z,100353.15
2019-05-25T05:58:50.904Z,100346.92
2019-05-25T05:59:52.643Z,100346.42
2019-05-25T06:00:54.088Z,100351.61
2019-05-25T06:01:55.476Z,100341.87
2019-05-25T06:02:57.332Z,100351.12
2019-05-25T06:03:58.713Z,100348.10
2019-05-25T06:05:00.223Z,100353.28
2019-05-25T06:06:01.604Z,100351.78
2019-05-25T06:07:03.013Z,100352.27
2019-05-25T06:08:04.497Z,100345.72
2019-05-25T06:09:06.653Z,100356.11
2019-05-25T06:10:08.657Z,100353.27
2019-05-25T06:11:10.036Z,100357.77
2019-05-25T06:12:11.432Z,100349.34
2019-05-25T06:13:12.815Z,100350.00
2019-05-25T06:14:15.205Z,100354.00
2019-05-25T06:15:16.834Z,100355.52
2019-05-25T06:16:18.212Z,100355.16
2019-05-25T06:17:19.719Z,100356.67
2019-05-25T06:18:22.115Z,100358.80
2019-05-25T06:19:23.516Z,100354.25
2019-05-25T06:20:24.999Z,100356.25
2019-05-25T06:21:26.393Z,100356.91
2019-05-25T06:22:27.895Z,100354.52
2019-05-25T06:23:29.295Z,100355.50
2019-05-25T06:24:30.685Z,100355.98
2019-05-25T06:25:32.118Z,100354.08
2019-05-25T06:26:33.498Z,100360.48
2019-05-25T06:27:34.903Z,100362.13
2019-05-25T06:28:36.288Z,100357.42
2019-05-25T06:29:37.686Z,100363.10
2019-05-25T06:30:39.245Z,100357.35
2019-05-25T06:31:40.742Z,100352.95
2019-05-25T06:32:42.182Z,100352.91
2019-05-25T06:33:44.227Z,100354.22
2019-05-25T06:34:45.777Z,100348.47
2019-05-25T06:35:47.162Z,100352.47
2019-05-25T06:36:48.658Z,100353.45
2019-05-25T06:37:50.052Z,100350.39
2019-05-25T06:38:51.441Z,100352.71
2019-05-25T06:39:52.868Z,100344.42
2019-05-25T06:40:54.474Z,100347.27
2019-05-25T06:41:55.856Z,100352.63
2019-05-25T06:42:57.254Z,100350.05
2019-05-25T06:43:58.645Z,100349.68
2019-05-25T06:45:00.157Z,100356.05
2019-05-25T06:46:01.882Z,100351.63
2019-05-25T06:47:03.569Z,100349.42
2019-05-25T06:48:05.057Z,100348.02
2019-05-25T06:49:06.449Z,100351.05
2019-05-25T06:50:08.936Z,100352.05
2019-05-25T06:51:10.362Z,100352.53
2019-05-25T06:52:11.838Z,100349.31
2019-05-25T06:53:13.343Z,100352.48
2019-05-25T06:54:14.740Z,100352.11
2019-05-25T06:55:16.355Z,100353.25
2019-05-25T06:56:17.877Z,100354.23
2019-05-25T06:57:19.253Z,100353.89
2019-05-25T06:58:20.652Z,100351.84
2019-05-25T06:59:22.031Z,100353.19
2019-05-25T07:00:23.728Z,100354.16
2019-05-25T07:01:25.243Z,100354.80
2019-05-25T07:02:27.769Z,100351.41
2019-05-25T07:03:29.156Z,100351.20
2019-05-25T07:04:30.621Z,100352.06
2019-05-25T07:05:32.166Z,100351.36
2019-05-25T07:06:33.604Z,100353.20
2019-05-25T07:07:35.186Z,100350.83
2019-05-25T07:08:36.575Z,100348.98
2019-05-25T07:09:37.958Z,100352.33
2019-05-25T07:10:39.352Z,100347.27
2019-05-25T07:11:40.846Z,100347.27
2019-05-25T07:12:42.236Z,100355.67
2019-05-25T07:13:43.625Z,100349.26
2019-05-25T07:14:45.128Z,100345.86
2019-05-25T07:15:46.623Z,100351.78
2019-05-25T07:16:48.082Z,100347.86
2019-05-25T07:17:49.477Z,100346.19
2019-05-25T07:18:50.988Z,100347.53
2019-05-25T07:19:52.370Z,100344.84
2019-05-25T07:20:53.773Z,100346.19
2019-05-25T07:21:55.387Z,100347.53
2019-05-25T07:22:56.886Z,100354.27
2019-05-25T07:23:58.293Z,100356.47
2019-05-25T07:24:59.684Z,100355.94
2019-05-25T07:26:01.068Z,100355.63
2019-05-25T07:27:03.719Z,100358.31
2019-05-25T07:28:05.130Z,100356.47
2019-05-25T07:29:06.549Z,100352.92
2019-05-25T07:30:09.863Z,100357.30
2019-05-25T07:31:11.272Z,100349.73
2019-05-25T07:32:12.806Z,100351.41
2019-05-25T07:33:14.189Z,100356.47
2019-05-25T07:34:15.579Z,100350.76
2019-05-25T07:35:17.112Z,100350.55
2019-05-25T07:36:18.493Z,100351.08
2019-05-25T07:37:20.448Z,100349.73
2019-05-25T07:38:21.842Z,100349.73
2019-05-25T07:39:23.236Z,100345.69
2019-05-25T07:40:24.647Z,100346.19
2019-05-25T07:41:26.057Z,100347.53
2019-05-25T07:42:27.613Z,100344.84
2019-05-25T07:43:29.097Z,100348.87
2019-05-25T07:44:30.495Z,100341.82
2019-05-25T07:45:31.890Z,100347.53
2019-05-25T07:46:33.286Z,100343.17
2019-05-25T07:47:34.913Z,100346.89
2019-05-25T07:48:36.328Z,100341.00
2019-05-25T07:49:37.793Z,100344.19
2019-05-25T07:50:39.205Z,100346.89
2019-05-25T07:51:40.629Z,100350.11
2019-05-25T07:52:42.168Z,100344.04
2019-05-25T07:53:43.710Z,100342.89
2019-05-25T07:54:45.109Z,100344.73
2019-05-25T07:55:46.492Z,100342.58
2019-05-25T07:56:47.893Z,100343.59
2019-05-25T07:57:49.426Z,100343.59
2019-05-25T07:58:50.945Z,100354.38
2019-05-25T07:59:52.357Z,100350.02
2019-05-25T08:00:53.879Z,100350.83
2019-05-25T08:01:55.303Z,100350.51
2019-05-25T08:02:57.122Z,100347.81
2019-05-25T08:03:58.501Z,100350.72
2019-05-25T08:05:01.000Z,100354.23
2019-05-25T08:06:02.449Z,100356.92
2019-05-25T08:07:03.928Z,100353.41
2019-05-25T08:08:05.751Z,100351.73
2019-05-25T08:09:07.429Z,100351.20
2019-05-25T08:10:09.022Z,100351.41
2019-05-25T08:11:10.408Z,100353.91
2019-05-25T08:12:11.807Z,100354.92
2019-05-25T08:13:13.373Z,100351.73
2019-05-25T08:14:14.752Z,100352.77
2019-05-25T08:15:16.944Z,100352.93
2019-05-25T08:16:18.327Z,100352.93
2019-05-25T08:17:19.734Z,100355.63
2019-05-25T08:18:21.268Z,100356.16
2019-05-25T08:19:22.655Z,100354.16
2019-05-25T08:20:24.153Z,100358.53
2019-05-25T08:21:25.543Z,100359.55
2019-05-25T08:22:26.938Z,100359.22
2019-05-25T08:23:28.397Z,100357.88
2019-05-25T08:24:29.778Z,100356.53
2019-05-25T08:25:31.173Z,100357.88
2019-05-25T08:26:32.554Z,100356.53
2019-05-25T08:27:33.961Z,100360.57
2019-05-25T08:28:35.495Z,100364.09
2019-05-25T08:29:36.884Z,100356.20
2019-05-25T08:30:38.293Z,100357.23
2019-05-25T08:31:39.685Z,100358.38
2019-05-25T08:32:41.083Z,100368.12
2019-05-25T08:33:42.705Z,100361.92
2019-05-25T08:34:44.190Z,100361.59
2019-05-25T08:35:46.509Z,100365.64
2019-05-25T08:36:48.248Z,100362.41
2019-05-25T08:37:49.634Z,100364.61
2019-05-25T08:38:54.646Z,100367.63
2019-05-25T08:39:54.714Z,100368.98
2019-05-25T08:40:56.186Z,100371.67
2019-05-25T08:41:57.565Z,100366.78
2019-05-25T08:42:58.966Z,100366.66
2019-05-25T08:44:04.247Z,100373.19
2019-05-25T08:45:05.409Z,100370.00
2019-05-25T08:46:06.830Z,100365.81
2019-05-25T08:47:08.237Z,100369.03
2019-05-25T08:48:09.636Z,100377.44
2019-05-25T08:49:11.046Z,100367.69
2019-05-25T08:50:12.629Z,100365.16
2019-05-25T08:51:14.038Z,100371.20
2019-05-25T08:52:15.572Z,100369.53
2019-05-25T08:53:16.983Z,100367.36
2019-05-25T08:54:18.513Z,100370.88
2019-05-25T08:55:19.932Z,100374.09
2019-05-25T08:56:21.345Z,100373.07
2019-05-25T08:57:22.760Z,100368.01
2019-05-25T08:58:24.170Z,100375.77
2019-05-25T08:59:25.785Z,100371.20
2019-05-25T09:00:27.276Z,100371.20
2019-05-25T09:01:32.525Z,100375.77
2019-05-25T09:02:33.908Z,100371.90
2019-05-25T09:03:35.316Z,100370.38
2019-05-25T09:04:36.989Z,100371.90
2019-05-25T09:05:38.400Z,100380.51
2019-05-25T09:06:39.795Z,100377.48
2019-05-25T09:07:41.257Z,100378.84
2019-05-25T09:08:42.637Z,100379.83
2019-05-25T09:09:44.193Z,100370.07
2019-05-25T09:10:46.115Z,100367.38
2019-05-25T09:11:47.561Z,100373.79
2019-05-25T09:12:49.969Z,100375.14
2019-05-25T09:13:51.395Z,100376.16
2019-05-25T09:14:53.035Z,100369.42
2019-05-25T09:15:54.531Z,100377.02
2019-05-25T09:16:55.922Z,100374.31
2019-05-25T09:17:57.420Z,100380.20
2019-05-25T09:18:58.909Z,100373.99
2019-05-25T09:20:00.342Z,100370.27
2019-05-25T09:21:01.833Z,100374.31
2019-05-25T09:22:04.015Z,100369.42
2019-05-25T09:23:05.608Z,100371.63
2019-05-25T09:24:07.313Z,100369.42
2019-05-25T09:25:09.194Z,100373.30
2019-05-25T09:26:13.374Z,100369.58
2019-05-25T09:27:14.078Z,100367.91
2019-05-25T09:28:15.482Z,100366.88
2019-05-25T09:29:16.875Z,100367.38
2019-05-25T09:30:18.472Z,100368.23
2019-05-25T09:31:19.846Z,100370.39
2019-05-25T09:32:21.255Z,100372.59
2019-05-25T09:33:22.728Z,100371.25
2019-05-25T09:34:24.141Z,100369.90
2019-05-25T09:35:25.748Z,100369.41
2019-05-25T09:36:27.140Z,100372.42
2019-05-25T09:37:28.514Z,100374.59
2019-05-25T09:38:30.099Z,100375.13
2019-05-25T09:39:31.496Z,100368.17
2019-05-25T09:40:32.926Z,100375.23
2019-05-25T09:41:34.624Z,100373.89
2019-05-25T09:42:36.060Z,100372.55
2019-05-25T09:43:37.584Z,100370.70
2019-05-25T09:44:39.174Z,100374.22
2019-05-25T09:45:40.946Z,100376.42
2019-05-25T09:46:42.330Z,100374.22
2019-05-25T09:47:43.838Z,100376.09
2019-05-25T09:48:45.223Z,100374.75
2019-05-25T09:49:47.722Z,100374.75
2019-05-25T09:50:49.148Z,100380.78
2019-05-25T09:51:50.561Z,100379.61
2019-05-25T09:52:51.985Z,100375.56
2019-05-25T09:53:53.451Z,100375.07
2019-05-25T09:54:55.679Z,100377.77
2019-05-25T09:55:57.405Z,100374.05
2019-05-25T09:56:58.789Z,100377.23
2019-05-25T09:58:00.301Z,100374.05
2019-05-25T09:59:01.681Z,100374.05
2019-05-25T10:00:08.115Z,100369.36
2019-05-25T10:01:09.701Z,100372.22
2019-05-25T10:02:11.218Z,100374.42
2019-05-25T10:03:12.735Z,100371.41
2019-05-25T10:04:14.147Z,100369.41
2019-05-25T10:05:15.765Z,100375.13
2019-05-25T10:06:17.368Z,100376.64
2019-05-25T10:07:18.852Z,100367.38
2019-05-25T10:08:20.238Z,100370.92
2019-05-25T10:09:21.699Z,100368.23
2019-05-25T10:10:23.170Z,100371.74
2019-05-25T10:11:24.708Z,100367.05
2019-05-25T10:12:26.097Z,100365.21
2019-05-25T10:13:27.507Z,100365.21
2019-05-25T10:14:28.888Z,100368.72
2019-05-25T10:15:30.280Z,100360.97
2019-05-25T10:16:31.708Z,100363.34
2019-05-25T10:17:33.199Z,100365.00
2019-05-25T10:18:34.609Z,100363.66
2019-05-25T10:19:36.099Z,100357.45
2019-05-25T10:20:37.596Z,100360.97
2019-05-25T10:21:38.980Z,100359.61
2019-05-25T10:22:40.375Z,100354.76
2019-05-25T10:23:41.760Z,100358.27
2019-05-25T10:24:43.152Z,100353.91
2019-05-25T10:25:44.603Z,100352.87
2019-05-25T10:26:46.291Z,100352.87
2019-05-25T10:27:47.872Z,100351.53
2019-05-25T10:28:49.280Z,100353.91
2019-05-25T10:29:50.676Z,100356.92
2019-05-25T10:30:52.062Z,100352.39
2019-05-25T10:31:53.707Z,100358.27
2019-05-25T10:32:55.092Z,100358.63
2019-05-25T10:33:56.483Z,100353.73
2019-05-25T10:34:57.876Z,100355.93
2019-05-25T10:35:59.272Z,100356.10
2019-05-25T10:37:00.697Z,100358.27
2019-05-25T10:38:02.087Z,100359.61
2019-05-25T10:39:06.270Z,100356.10
2019-05-25T10:40:08.325Z,100361.49
2019-05-25T10:41:09.714Z,100356.59
2019-05-25T10:42:11.203Z,100357.62
2019-05-25T10:43:12.670Z,100354.92
2019-05-25T10:44:14.172Z,100359.30
2019-05-25T10:45:16.546Z,100361.49
2019-05-25T10:46:18.058Z,100361.98
2019-05-25T10:47:19.564Z,100355.78
2019-05-25T10:48:20.986Z,100357.12
2019-05-25T10:49:22.381Z,100357.62
2019-05-25T10:50:24.214Z,100356.27
2019-05-25T10:51:25.605Z,100348.19
2019-05-25T10:52:27.145Z,100358.15
2019-05-25T10:53:28.522Z,100354.11
2019-05-25T10:54:29.926Z,100361.66
2019-05-25T10:55:31.305Z,100357.30
2019-05-25T10:56:32.698Z,100358.31
2019-05-25T10:57:34.117Z,100361.02
2019-05-25T10:58:35.602Z,100360.69
2019-05-25T10:59:51.832Z,100366.41
2019-05-25T11:00:40.491Z,100366.73
2019-05-25T11:01:41.900Z,100364.03
2019-05-25T11:02:43.305Z,100365.38
2019-05-25T11:03:44.683Z,100356.47
2019-05-25T11:04:46.092Z,100361.34
2019-05-25T11:05:47.480Z,100362.69
2019-05-25T11:06:48.887Z,100363.53
2019-05-25T11:07:50.268Z,100358.15
2019-05-25T11:08:51.684Z,100358.97
2019-05-25T11:09:53.076Z,100356.47
2019-05-25T11:10:54.637Z,100356.80
2019-05-25T11:11:56.022Z,100362.52
2019-05-25T11:12:57.420Z,100359.82
2019-05-25T11:13:58.805Z,100360.64
2019-05-25T11:15:07.233Z,100356.92
2019-05-25T11:16:08.616Z,100362.52
2019-05-25T11:17:10.034Z,100356.92
2019-05-25T11:18:11.415Z,100360.97
2019-05-25T11:19:12.907Z,100358.80
2019-05-25T11:20:14.596Z,100356.59
2019-05-25T11:21:16.005Z,100354.43
2019-05-25T11:22:17.389Z,100359.61
2019-05-25T11:23:18.834Z,100356.92
2019-05-25T11:24:20.201Z,100354.23
2019-05-25T11:25:21.609Z,100358.27
2019-05-25T11:26:22.989Z,100356.92
2019-05-25T11:27:24.391Z,100352.87
2019-05-25T11:28:25.960Z,100354.23
2019-05-25T11:29:27.357Z,100362.99
2019-05-25T11:30:28.751Z,100360.80
2019-05-25T11:31:30.557Z,100351.89
2019-05-25T11:32:32.191Z,100361.64
2019-05-25T11:33:36.387Z,100358.63
2019-05-25T11:34:36.974Z,100364.34
2019-05-25T11:35:38.373Z,100367.03
2019-05-25T11:36:39.756Z,100358.09
2019-05-25T11:37:41.259Z,100360.30
2019-05-25T11:38:42.849Z,100359.45
2019-05-25T11:39:44.241Z,100348.66
2019-05-25T11:40:45.618Z,100355.58
2019-05-25T11:41:47.080Z,100353.23
2019-05-25T11:42:49.578Z,100354.58